Terminal Aerodrome Forecast
Issued by NWS

Current Version | Previous Version | Graphics & Text | Print | Product List | Glossary On
Versions: 1 2 3 4 5 6 7 8 9 10 11 12 13 14 15 16
043
FTUS41 KPBZ 181720
TAFMGW
TAF
KMGW 181720Z 1818/1918 08012G24KT P6SM OVC050
     FM190300 11014G24KT P6SM VCSH OVC050
     FM190600 11012G22KT P6SM -SHRA OVC050
     FM190900 11010G19KT P6SM VCSH OVC025
     FM191300 14009KT P6SM VCSH OVC050=

USA.gov is the U.S. government's official web portal to all federal, state and local government web resources and services.